sensor_id;sensor_type;location;lat;lon;timestamp;P1;durP1;ratioP1;P2;durP2;ratioP2
40515;SDS011;26216;53.724;9.898;2023-04-24T00:00:55;3.83;;;2.90;;
40515;SDS011;26216;53.724;9.898;2023-04-24T00:03:24;2.85;;;2.53;;
40515;SDS011;26216;53.724;9.898;2023-04-24T00:05:51;3.03;;;2.67;;
40515;SDS011;26216;53.724;9.898;2023-04-24T00:08:17;3.30;;;2.50;;
40515;SDS011;26216;53.724;9.898;2023-04-24T00:10:43;2.88;;;2.42;;
40515;SDS011;26216;53.724;9.898;2023-04-24T00:13:09;3.00;;;2.33;;
40515;SDS011;26216;53.724;9.898;2023-04-24T00:15:35;3.38;;;2.55;;
40515;SDS011;26216;53.724;9.898;2023-04-24T00:18:01;2.80;;;2.47;;
40515;SDS011;26216;53.724;9.898;2023-04-24T00:20:27;3.33;;;2.60;;
40515;SDS011;26216;53.724;9.898;2023-04-24T00:22:54;3.30;;;2.63;;
40515;SDS011;26216;53.724;9.898;2023-04-24T00:25:20;3.00;;;2.70;;
40515;SDS011;26216;53.724;9.898;2023-04-24T00:27:46;2.85;;;2.30;;
40515;SDS011;26216;53.724;9.898;2023-04-24T00:30:12;3.20;;;2.58;;
40515;SDS011;26216;53.724;9.898;2023-04-24T00:32:38;3.72;;;2.80;;
40515;SDS011;26216;53.724;9.898;2023-04-24T00:35:05;3.20;;;2.80;;
40515;SDS011;26216;53.724;9.898;2023-04-24T00:37:31;3.67;;;2.95;;
40515;SDS011;26216;53.724;9.898;2023-04-24T00:39:57;2.75;;;2.42;;
40515;SDS011;26216;53.724;9.898;2023-04-24T00:42:23;2.88;;;2.58;;
40515;SDS011;26216;53.724;9.898;2023-04-24T00:44:49;3.30;;;2.60;;
40515;SDS011;26216;53.724;9.898;2023-04-24T00:47:16;2.97;;;2.22;;
40515;SDS011;26216;53.724;9.898;2023-04-24T00:49:43;3.38;;;2.67;;
40515;SDS011;26216;53.724;9.898;2023-04-24T00:52:09;3.47;;;2.72;;
40515;SDS011;26216;53.724;9.898;2023-04-24T00:54:36;4.35;;;2.83;;
40515;SDS011;26216;53.724;9.898;2023-04-24T00:57:04;3.30;;;2.63;;
40515;SDS011;26216;53.724;9.898;2023-04-24T00:59:30;3.42;;;2.75;;
40515;SDS011;26216;53.724;9.898;2023-04-24T01:01:57;3.40;;;2.80;;
40515;SDS011;26216;53.724;9.898;2023-04-24T01:04:23;3.33;;;2.63;;
40515;SDS011;26216;53.724;9.898;2023-04-24T01:06:51;3.00;;;2.70;;
40515;SDS011;26216;53.724;9.898;2023-04-24T01:09:18;3.13;;;2.42;;
40515;SDS011;26216;53.724;9.898;2023-04-24T01:11:45;3.30;;;2.70;;
40515;SDS011;26216;53.724;9.898;2023-04-24T01:14:12;3.33;;;2.70;;
40515;SDS011;26216;53.724;9.898;2023-04-24T01:16:37;2.80;;;2.50;;
40515;SDS011;26216;53.724;9.898;2023-04-24T01:19:05;3.72;;;2.85;;
40515;SDS011;26216;53.724;9.898;2023-04-24T01:21:33;3.22;;;2.80;;
40515;SDS011;26216;53.724;9.898;2023-04-24T01:24:02;2.85;;;2.40;;
40515;SDS011;26216;53.724;9.898;2023-04-24T01:26:29;3.70;;;2.78;;
40515;SDS011;26216;53.724;9.898;2023-04-24T01:28:55;3.88;;;2.85;;
40515;SDS011;26216;53.724;9.898;2023-04-24T01:31:21;3.70;;;3.20;;
40515;SDS011;26216;53.724;9.898;2023-04-24T01:33:47;3.30;;;2.90;;
40515;SDS011;26216;53.724;9.898;2023-04-24T01:36:14;3.60;;;3.03;;
40515;SDS011;26216;53.724;9.898;2023-04-24T01:38:41;3.42;;;2.72;;
40515;SDS011;26216;53.724;9.898;2023-04-24T01:41:07;3.28;;;2.72;;
40515;SDS011;26216;53.724;9.898;2023-04-24T01:43:33;4.40;;;3.05;;
40515;SDS011;26216;53.724;9.898;2023-04-24T01:45:59;2.42;;;2.13;;
40515;SDS011;26216;53.724;9.898;2023-04-24T01:48:25;3.25;;;2.58;;
40515;SDS011;26216;53.724;9.898;2023-04-24T01:50:51;3.03;;;2.72;;
40515;SDS011;26216;53.724;9.898;2023-04-24T01:53:17;3.25;;;2.55;;
40515;SDS011;26216;53.724;9.898;2023-04-24T01:55:43;2.45;;;2.10;;
40515;SDS011;26216;53.724;9.898;2023-04-24T01:58:09;3.28;;;2.53;;
40515;SDS011;26216;53.724;9.898;2023-04-24T02:00:35;3.22;;;2.28;;
40515;SDS011;26216;53.724;9.898;2023-04-24T02:03:01;2.67;;;2.17;;
40515;SDS011;26216;53.724;9.898;2023-04-24T02:05:27;2.97;;;2.38;;
40515;SDS011;26216;53.724;9.898;2023-04-24T02:07:53;2.53;;;2.00;;
40515;SDS011;26216;53.724;9.898;2023-04-24T02:10:19;2.70;;;2.05;;
40515;SDS011;26216;53.724;9.898;2023-04-24T02:12:45;3.47;;;2.20;;
40515;SDS011;26216;53.724;9.898;2023-04-24T02:15:11;3.88;;;1.70;;
40515;SDS011;26216;53.724;9.898;2023-04-24T02:17:37;2.45;;;2.00;;
40515;SDS011;26216;53.724;9.898;2023-04-24T02:20:03;2.55;;;2.00;;
40515;SDS011;26216;53.724;9.898;2023-04-24T02:22:30;2.28;;;1.88;;
40515;SDS011;26216;53.724;9.898;2023-04-24T02:24:56;2.40;;;1.80;;
40515;SDS011;26216;53.724;9.898;2023-04-24T02:27:22;1.85;;;1.60;;
40515;SDS011;26216;53.724;9.898;2023-04-24T02:29:48;1.95;;;1.63;;
40515;SDS011;26216;53.724;9.898;2023-04-24T02:32:14;1.55;;;1.20;;
40515;SDS011;26216;53.724;9.898;2023-04-24T02:34:40;2.08;;;1.42;;
40515;SDS011;26216;53.724;9.898;2023-04-24T02:37:06;1.80;;;1.40;;
40515;SDS011;26216;53.724;9.898;2023-04-24T02:39:32;2.00;;;1.60;;
40515;SDS011;26216;53.724;9.898;2023-04-24T02:41:58;1.48;;;1.20;;
40515;SDS011;26216;53.724;9.898;2023-04-24T02:44:23;1.95;;;1.40;;
40515;SDS011;26216;53.724;9.898;2023-04-24T02:46:49;1.23;;;1.13;;
40515;SDS011;26216;53.724;9.898;2023-04-24T02:49:15;1.40;;;1.10;;
40515;SDS011;26216;53.724;9.898;2023-04-24T02:51:41;1.38;;;1.02;;
40515;SDS011;26216;53.724;9.898;2023-04-24T02:54:08;1.75;;;1.10;;
40515;SDS011;26216;53.724;9.898;2023-04-24T02:56:35;1.30;;;1.08;;
40515;SDS011;26216;53.724;9.898;2023-04-24T02:59:01;1.50;;;1.02;;
40515;SDS011;26216;53.724;9.898;2023-04-24T03:01:27;1.75;;;1.25;;
40515;SDS011;26216;53.724;9.898;2023-04-24T03:03:54;1.67;;;1.35;;
40515;SDS011;26216;53.724;9.898;2023-04-24T03:06:20;1.10;;;1.00;;
40515;SDS011;26216;53.724;9.898;2023-04-24T03:08:46;1.42;;;1.02;;
40515;SDS011;26216;53.724;9.898;2023-04-24T03:11:15;0.95;;;0.88;;
40515;SDS011;26216;53.724;9.898;2023-04-24T03:13:44;1.48;;;0.90;;
40515;SDS011;26216;53.724;9.898;2023-04-24T03:16:10;1.92;;;0.85;;
40515;SDS011;26216;53.724;9.898;2023-04-24T03:18:36;1.17;;;0.85;;
40515;SDS011;26216;53.724;9.898;2023-04-24T03:21:02;1.00;;;0.82;;
40515;SDS011;26216;53.724;9.898;2023-04-24T03:23:34;1.42;;;0.93;;
40515;SDS011;26216;53.724;9.898;2023-04-24T03:26:02;1.35;;;1.08;;
40515;SDS011;26216;53.724;9.898;2023-04-24T03:28:28;7.95;;;1.25;;
40515;SDS011;26216;53.724;9.898;2023-04-24T03:30:55;1.08;;;0.98;;
40515;SDS011;26216;53.724;9.898;2023-04-24T03:33:26;0.85;;;0.80;;
40515;SDS011;26216;53.724;9.898;2023-04-24T03:36:10;0.80;;;0.80;;
40515;SDS011;26216;53.724;9.898;2023-04-24T03:38:36;1.30;;;1.20;;
40515;SDS011;26216;53.724;9.898;2023-04-24T03:41:02;1.52;;;0.90;;
40515;SDS011;26216;53.724;9.898;2023-04-24T03:43:27;1.02;;;0.88;;
40515;SDS011;26216;53.724;9.898;2023-04-24T03:45:53;1.27;;;0.93;;
40515;SDS011;26216;53.724;9.898;2023-04-24T03:48:19;1.75;;;1.20;;
40515;SDS011;26216;53.724;9.898;2023-04-24T03:50:45;2.00;;;1.10;;
40515;SDS011;26216;53.724;9.898;2023-04-24T03:53:11;1.23;;;1.05;;
40515;SDS011;26216;53.724;9.898;2023-04-24T03:55:37;1.10;;;0.88;;
40515;SDS011;26216;53.724;9.898;2023-04-24T03:58:03;1.20;;;1.08;;
40515;SDS011;26216;53.724;9.898;2023-04-24T04:00:29;1.50;;;1.08;;
40515;SDS011;26216;53.724;9.898;2023-04-24T04:02:56;1.65;;;1.00;;
40515;SDS011;26216;53.724;9.898;2023-04-24T04:05:22;1.63;;;1.10;;
40515;SDS011;26216;53.724;9.898;2023-04-24T04:07:48;1.25;;;1.00;;
40515;SDS011;26216;53.724;9.898;2023-04-24T04:10:14;1.30;;;0.90;;
40515;SDS011;26216;53.724;9.898;2023-04-24T04:12:40;1.67;;;1.13;;
40515;SDS011;26216;53.724;9.898;2023-04-24T04:15:06;1.80;;;1.15;;
40515;SDS011;26216;53.724;9.898;2023-04-24T04:17:32;1.30;;;1.20;;
40515;SDS011;26216;53.724;9.898;2023-04-24T04:19:58;2.13;;;1.20;;
40515;SDS011;26216;53.724;9.898;2023-04-24T04:22:24;1.27;;;1.10;;
40515;SDS011;26216;53.724;9.898;2023-04-24T04:24:50;1.55;;;1.23;;
40515;SDS011;26216;53.724;9.898;2023-04-24T04:27:16;1.83;;;1.27;;
40515;SDS011;26216;53.724;9.898;2023-04-24T04:29:44;1.20;;;1.10;;
40515;SDS011;26216;53.724;9.898;2023-04-24T04:32:12;1.10;;;1.00;;
40515;SDS011;26216;53.724;9.898;2023-04-24T04:34:38;1.02;;;0.90;;
40515;SDS011;26216;53.724;9.898;2023-04-24T04:37:04;1.13;;;1.02;;
40515;SDS011;26216;53.724;9.898;2023-04-24T04:39:31;1.65;;;1.33;;
40515;SDS011;26216;53.724;9.898;2023-04-24T04:41:56;1.05;;;0.93;;
40515;SDS011;26216;53.724;9.898;2023-04-24T04:44:23;0.90;;;0.70;;
40515;SDS011;26216;53.724;9.898;2023-04-24T04:46:49;2.38;;;1.27;;
40515;SDS011;26216;53.724;9.898;2023-04-24T04:49:18;1.33;;;0.90;;
40515;SDS011;26216;53.724;9.898;2023-04-24T04:51:46;1.08;;;0.93;;
40515;SDS011;26216;53.724;9.898;2023-04-24T04:54:12;1.42;;;1.10;;
40515;SDS011;26216;53.724;9.898;2023-04-24T04:56:38;2.35;;;1.17;;
40515;SDS011;26216;53.724;9.898;2023-04-24T04:59:04;1.67;;;1.02;;
40515;SDS011;26216;53.724;9.898;2023-04-24T05:01:31;2.10;;;1.00;;
40515;SDS011;26216;53.724;9.898;2023-04-24T05:03:57;1.00;;;0.80;;
40515;SDS011;26216;53.724;9.898;2023-04-24T05:06:23;0.70;;;0.70;;
40515;SDS011;26216;53.724;9.898;2023-04-24T05:08:49;2.13;;;0.93;;
40515;SDS011;26216;53.724;9.898;2023-04-24T05:11:16;1.27;;;0.93;;
40515;SDS011;26216;53.724;9.898;2023-04-24T05:13:42;1.00;;;0.90;;
40515;SDS011;26216;53.724;9.898;2023-04-24T05:16:08;1.55;;;1.00;;
40515;SDS011;26216;53.724;9.898;2023-04-24T05:18:35;0.70;;;0.70;;
40515;SDS011;26216;53.724;9.898;2023-04-24T05:21:00;1.50;;;0.80;;
40515;SDS011;26216;53.724;9.898;2023-04-24T05:23:26;2.00;;;0.90;;
40515;SDS011;26216;53.724;9.898;2023-04-24T05:25:52;1.33;;;0.70;;
40515;SDS011;26216;53.724;9.898;2023-04-24T05:28:18;1.08;;;0.80;;
40515;SDS011;26216;53.724;9.898;2023-04-24T05:30:44;1.20;;;0.80;;
40515;SDS011;26216;53.724;9.898;2023-04-24T05:33:10;1.17;;;0.70;;
40515;SDS011;26216;53.724;9.898;2023-04-24T05:35:36;1.08;;;0.65;;
40515;SDS011;26216;53.724;9.898;2023-04-24T05:38:02;0.70;;;0.68;;
40515;SDS011;26216;53.724;9.898;2023-04-24T05:40:28;0.75;;;0.60;;
40515;SDS011;26216;53.724;9.898;2023-04-24T05:42:54;1.48;;;0.80;;
40515;SDS011;26216;53.724;9.898;2023-04-24T05:45:20;0.77;;;0.70;;
40515;SDS011;26216;53.724;9.898;2023-04-24T05:47:46;0.70;;;0.70;;
40515;SDS011;26216;53.724;9.898;2023-04-24T05:50:12;0.88;;;0.82;;
40515;SDS011;26216;53.724;9.898;2023-04-24T05:52:38;1.23;;;0.88;;
40515;SDS011;26216;53.724;9.898;2023-04-24T05:55:04;0.70;;;0.70;;
40515;SDS011;26216;53.724;9.898;2023-04-24T05:57:30;0.77;;;0.65;;
40515;SDS011;26216;53.724;9.898;2023-04-24T05:59:56;2.33;;;0.85;;
40515;SDS011;26216;53.724;9.898;2023-04-24T06:02:22;0.68;;;0.68;;
40515;SDS011;26216;53.724;9.898;2023-04-24T06:04:48;1.02;;;0.70;;
40515;SDS011;26216;53.724;9.898;2023-04-24T06:07:14;0.80;;;0.73;;
40515;SDS011;26216;53.724;9.898;2023-04-24T06:09:40;1.13;;;0.68;;
40515;SDS011;26216;53.724;9.898;2023-04-24T06:12:05;1.00;;;0.63;;
40515;SDS011;26216;53.724;9.898;2023-04-24T06:14:33;1.05;;;0.90;;
40515;SDS011;26216;53.724;9.898;2023-04-24T06:16:59;1.05;;;0.80;;
40515;SDS011;26216;53.724;9.898;2023-04-24T06:19:25;1.48;;;0.65;;
40515;SDS011;26216;53.724;9.898;2023-04-24T06:21:51;0.95;;;0.75;;
40515;SDS011;26216;53.724;9.898;2023-04-24T06:24:17;1.00;;;0.77;;
40515;SDS011;26216;53.724;9.898;2023-04-24T06:26:42;0.70;;;0.70;;
40515;SDS011;26216;53.724;9.898;2023-04-24T06:29:08;1.13;;;0.70;;
40515;SDS011;26216;53.724;9.898;2023-04-24T06:31:35;0.98;;;0.70;;
40515;SDS011;26216;53.724;9.898;2023-04-24T06:34:04;0.75;;;0.75;;
40515;SDS011;26216;53.724;9.898;2023-04-24T06:36:31;1.55;;;0.85;;
40515;SDS011;26216;53.724;9.898;2023-04-24T06:38:59;1.85;;;1.00;;
40515;SDS011;26216;53.724;9.898;2023-04-24T06:41:25;1.60;;;1.00;;
40515;SDS011;26216;53.724;9.898;2023-04-24T06:43:51;1.58;;;1.10;;
40515;SDS011;26216;53.724;9.898;2023-04-24T06:46:17;1.48;;;0.77;;
40515;SDS011;26216;53.724;9.898;2023-04-24T06:48:43;1.95;;;0.85;;
40515;SDS011;26216;53.724;9.898;2023-04-24T06:51:09;0.80;;;0.80;;
40515;SDS011;26216;53.724;9.898;2023-04-24T06:53:35;0.75;;;0.70;;
40515;SDS011;26216;53.724;9.898;2023-04-24T06:56:01;1.23;;;0.90;;
40515;SDS011;26216;53.724;9.898;2023-04-24T06:58:27;1.17;;;0.90;;
40515;SDS011;26216;53.724;9.898;2023-04-24T07:00:53;1.73;;;1.02;;
40515;SDS011;26216;53.724;9.898;2023-04-24T07:03:19;1.27;;;0.80;;
40515;SDS011;26216;53.724;9.898;2023-04-24T07:05:45;1.48;;;1.00;;
40515;SDS011;26216;53.724;9.898;2023-04-24T07:08:11;1.38;;;1.10;;
40515;SDS011;26216;53.724;9.898;2023-04-24T07:10:37;1.00;;;0.90;;
40515;SDS011;26216;53.724;9.898;2023-04-24T07:13:03;1.45;;;0.80;;
40515;SDS011;26216;53.724;9.898;2023-04-24T07:15:29;1.33;;;0.95;;
40515;SDS011;26216;53.724;9.898;2023-04-24T07:17:55;1.52;;;0.80;;
40515;SDS011;26216;53.724;9.898;2023-04-24T07:20:21;0.80;;;0.80;;
40515;SDS011;26216;53.724;9.898;2023-04-24T07:22:47;1.80;;;1.33;;
40515;SDS011;26216;53.724;9.898;2023-04-24T07:25:14;1.00;;;0.90;;
40515;SDS011;26216;53.724;9.898;2023-04-24T07:27:40;1.63;;;1.20;;
40515;SDS011;26216;53.724;9.898;2023-04-24T07:30:06;1.30;;;1.10;;
40515;SDS011;26216;53.724;9.898;2023-04-24T07:32:32;1.85;;;1.50;;
40515;SDS011;26216;53.724;9.898;2023-04-24T07:34:58;1.45;;;1.10;;
40515;SDS011;26216;53.724;9.898;2023-04-24T07:37:24;1.55;;;1.30;;
40515;SDS011;26216;53.724;9.898;2023-04-24T07:39:50;2.28;;;1.63;;
40515;SDS011;26216;53.724;9.898;2023-04-24T07:42:16;1.58;;;1.38;;
40515;SDS011;26216;53.724;9.898;2023-04-24T07:44:42;2.40;;;1.50;;
40515;SDS011;26216;53.724;9.898;2023-04-24T07:47:08;2.13;;;1.52;;
40515;SDS011;26216;53.724;9.898;2023-04-24T07:49:34;2.83;;;1.88;;
40515;SDS011;26216;53.724;9.898;2023-04-24T07:52:00;1.80;;;1.65;;
40515;SDS011;26216;53.724;9.898;2023-04-24T07:54:27;2.10;;;1.48;;
40515;SDS011;26216;53.724;9.898;2023-04-24T07:56:54;1.90;;;1.70;;
40515;SDS011;26216;53.724;9.898;2023-04-24T07:59:20;2.63;;;2.10;;
40515;SDS011;26216;53.724;9.898;2023-04-24T08:01:46;2.20;;;1.73;;
40515;SDS011;26216;53.724;9.898;2023-04-24T08:04:11;2.08;;;1.73;;
40515;SDS011;26216;53.724;9.898;2023-04-24T08:06:37;3.15;;;1.50;;
40515;SDS011;26216;53.724;9.898;2023-04-24T08:09:04;4.03;;;2.30;;
40515;SDS011;26216;53.724;9.898;2023-04-24T08:11:31;2.88;;;1.73;;
40515;SDS011;26216;53.724;9.898;2023-04-24T08:13:58;1.85;;;1.65;;
40515;SDS011;26216;53.724;9.898;2023-04-24T08:16:24;2.47;;;2.13;;
40515;SDS011;26216;53.724;9.898;2023-04-24T08:18:50;2.67;;;2.10;;
40515;SDS011;26216;53.724;9.898;2023-04-24T08:21:16;2.17;;;1.80;;
40515;SDS011;26216;53.724;9.898;2023-04-24T08:23:45;2.65;;;1.90;;
40515;SDS011;26216;53.724;9.898;2023-04-24T08:26:12;2.75;;;2.35;;
40515;SDS011;26216;53.724;9.898;2023-04-24T08:28:38;2.92;;;2.38;;
40515;SDS011;26216;53.724;9.898;2023-04-24T08:31:04;2.63;;;2.00;;
40515;SDS011;26216;53.724;9.898;2023-04-24T08:33:30;3.10;;;2.30;;
40515;SDS011;26216;53.724;9.898;2023-04-24T08:36:00;2.35;;;2.03;;
40515;SDS011;26216;53.724;9.898;2023-04-24T08:38:30;2.38;;;1.90;;
40515;SDS011;26216;53.724;9.898;2023-04-24T08:40:57;2.20;;;2.00;;
40515;SDS011;26216;53.724;9.898;2023-04-24T08:43:24;2.60;;;2.13;;
40515;SDS011;26216;53.724;9.898;2023-04-24T08:45:51;2.13;;;1.70;;
40515;SDS011;26216;53.724;9.898;2023-04-24T08:48:18;2.10;;;1.70;;
40515;SDS011;26216;53.724;9.898;2023-04-24T08:50:44;2.17;;;1.85;;
40515;SDS011;26216;53.724;9.898;2023-04-24T08:53:10;2.67;;;2.38;;
40515;SDS011;26216;53.724;9.898;2023-04-24T08:55:39;1.83;;;1.70;;
40515;SDS011;26216;53.724;9.898;2023-04-24T08:58:08;2.00;;;1.80;;
40515;SDS011;26216;53.724;9.898;2023-04-24T09:00:34;2.40;;;2.13;;
40515;SDS011;26216;53.724;9.898;2023-04-24T09:03:00;3.10;;;2.60;;
40515;SDS011;26216;53.724;9.898;2023-04-24T09:05:28;2.75;;;2.25;;
40515;SDS011;26216;53.724;9.898;2023-04-24T09:07:55;3.08;;;2.40;;
40515;SDS011;26216;53.724;9.898;2023-04-24T09:10:23;3.03;;;2.42;;
40515;SDS011;26216;53.724;9.898;2023-04-24T09:13:10;2.83;;;2.40;;
40515;SDS011;26216;53.724;9.898;2023-04-24T09:15:39;2.63;;;2.25;;
40515;SDS011;26216;53.724;9.898;2023-04-24T09:18:06;3.13;;;2.55;;
40515;SDS011;26216;53.724;9.898;2023-04-24T09:20:32;5.20;;;3.50;;
40515;SDS011;26216;53.724;9.898;2023-04-24T09:23:00;3.83;;;3.40;;
40515;SDS011;26216;53.724;9.898;2023-04-24T09:25:33;3.40;;;3.10;;
40515;SDS011;26216;53.724;9.898;2023-04-24T09:28:02;3.30;;;2.90;;
40515;SDS011;26216;53.724;9.898;2023-04-24T09:30:29;3.45;;;2.97;;
40515;SDS011;26216;53.724;9.898;2023-04-24T09:33:12;3.55;;;3.22;;
40515;SDS011;26216;53.724;9.898;2023-04-24T09:35:40;3.22;;;2.65;;
40515;SDS011;26216;53.724;9.898;2023-04-24T09:38:16;3.38;;;2.85;;
40515;SDS011;26216;53.724;9.898;2023-04-24T09:40:42;4.10;;;3.00;;
40515;SDS011;26216;53.724;9.898;2023-04-24T09:43:11;4.38;;;3.20;;
40515;SDS011;26216;53.724;9.898;2023-04-24T09:45:38;3.25;;;2.78;;
40515;SDS011;26216;53.724;9.898;2023-04-24T09:48:05;3.00;;;2.70;;
40515;SDS011;26216;53.724;9.898;2023-04-24T09:50:35;3.78;;;3.00;;
40515;SDS011;26216;53.724;9.898;2023-04-24T09:53:02;3.40;;;2.90;;
40515;SDS011;26216;53.724;9.898;2023-04-24T09:55:29;3.53;;;2.80;;
40515;SDS011;26216;53.724;9.898;2023-04-24T09:57:56;3.85;;;3.00;;
40515;SDS011;26216;53.724;9.898;2023-04-24T10:00:29;4.33;;;3.47;;
40515;SDS011;26216;53.724;9.898;2023-04-24T10:03:01;3.78;;;3.42;;
40515;SDS011;26216;53.724;9.898;2023-04-24T10:05:32;3.55;;;2.95;;
40515;SDS011;26216;53.724;9.898;2023-04-24T10:08:01;3.35;;;2.92;;
40515;SDS011;26216;53.724;9.898;2023-04-24T10:10:33;5.28;;;3.35;;
40515;SDS011;26216;53.724;9.898;2023-04-24T10:13:00;4.07;;;3.40;;
40515;SDS011;26216;53.724;9.898;2023-04-24T10:15:27;3.63;;;3.10;;
40515;SDS011;26216;53.724;9.898;2023-04-24T10:17:53;3.40;;;3.00;;
40515;SDS011;26216;53.724;9.898;2023-04-24T10:20:23;4.85;;;3.72;;
40515;SDS011;26216;53.724;9.898;2023-04-24T10:22:51;5.75;;;4.93;;
40515;SDS011;26216;53.724;9.898;2023-04-24T10:25:22;5.75;;;3.97;;
40515;SDS011;26216;53.724;9.898;2023-04-24T10:27:52;5.60;;;4.63;;
40515;SDS011;26216;53.724;9.898;2023-04-24T10:30:25;4.32;;;3.33;;
40515;SDS011;26216;53.724;9.898;2023-04-24T10:32:56;3.53;;;3.15;;
40515;SDS011;26216;53.724;9.898;2023-04-24T10:35:22;4.47;;;3.47;;
40515;SDS011;26216;53.724;9.898;2023-04-24T10:37:56;4.75;;;3.72;;
40515;SDS011;26216;53.724;9.898;2023-04-24T10:40:30;3.60;;;3.30;;
40515;SDS011;26216;53.724;9.898;2023-04-24T10:43:03;5.38;;;4.80;;
40515;SDS011;26216;53.724;9.898;2023-04-24T10:45:33;5.10;;;4.55;;
40515;SDS011;26216;53.724;9.898;2023-04-24T10:48:03;6.43;;;4.60;;
40515;SDS011;26216;53.724;9.898;2023-04-24T10:50:44;5.47;;;4.25;;
40515;SDS011;26216;53.724;9.898;2023-04-24T10:53:29;5.28;;;4.45;;
40515;SDS011;26216;53.724;9.898;2023-04-24T10:56:03;7.47;;;5.15;;
40515;SDS011;26216;53.724;9.898;2023-04-24T10:58:44;5.70;;;5.10;;
40515;SDS011;26216;53.724;9.898;2023-04-24T11:01:24;6.68;;;6.03;;
40515;SDS011;26216;53.724;9.898;2023-04-24T11:03:55;7.57;;;6.13;;
40515;SDS011;26216;53.724;9.898;2023-04-24T11:06:32;6.38;;;5.45;;
40515;SDS011;26216;53.724;9.898;2023-04-24T11:09:04;6.78;;;5.72;;
40515;SDS011;26216;53.724;9.898;2023-04-24T11:11:31;5.95;;;5.35;;
40515;SDS011;26216;53.724;9.898;2023-04-24T11:16:28;6.35;;;5.57;;
40515;SDS011;26216;53.724;9.898;2023-04-24T11:19:06;7.85;;;5.60;;
40515;SDS011;26216;53.724;9.898;2023-04-24T11:21:43;6.45;;;5.53;;
40515;SDS011;26216;53.724;9.898;2023-04-24T11:27:06;8.18;;;5.88;;
40515;SDS011;26216;53.724;9.898;2023-04-24T11:34:49;6.57;;;5.70;;
40515;SDS011;26216;53.724;9.898;2023-04-24T11:37:36;7.93;;;7.13;;
40515;SDS011;26216;53.724;9.898;2023-04-24T11:40:04;7.82;;;7.03;;
40515;SDS011;26216;53.724;9.898;2023-04-24T11:42:34;7.97;;;6.40;;
40515;SDS011;26216;53.724;9.898;2023-04-24T11:45:01;7.47;;;5.45;;
40515;SDS011;26216;53.724;9.898;2023-04-24T11:47:32;5.97;;;5.33;;
40515;SDS011;26216;53.724;9.898;2023-04-24T11:50:01;6.85;;;6.15;;
40515;SDS011;26216;53.724;9.898;2023-04-24T11:52:29;6.82;;;6.10;;
40515;SDS011;26216;53.724;9.898;2023-04-24T11:54:55;6.80;;;5.50;;
40515;SDS011;26216;53.724;9.898;2023-04-24T11:57:23;7.15;;;6.40;;
40515;SDS011;26216;53.724;9.898;2023-04-24T11:59:52;7.05;;;6.20;;
40515;SDS011;26216;53.724;9.898;2023-04-24T12:02:26;7.45;;;6.50;;
40515;SDS011;26216;53.724;9.898;2023-04-24T12:04:52;7.18;;;6.03;;
40515;SDS011;26216;53.724;9.898;2023-04-24T12:07:19;7.15;;;6.25;;
40515;SDS011;26216;53.724;9.898;2023-04-24T12:09:46;6.07;;;5.47;;
40515;SDS011;26216;53.724;9.898;2023-04-24T12:12:15;6.28;;;5.45;;
40515;SDS011;26216;53.724;9.898;2023-04-24T12:14:47;5.50;;;5.00;;
40515;SDS011;26216;53.724;9.898;2023-04-24T12:17:15;6.03;;;5.20;;
40515;SDS011;26216;53.724;9.898;2023-04-24T12:19:48;6.82;;;5.20;;
40515;SDS011;26216;53.724;9.898;2023-04-24T12:22:15;7.82;;;5.97;;
40515;SDS011;26216;53.724;9.898;2023-04-24T12:27:31;4.78;;;3.97;;
40515;SDS011;26216;53.724;9.898;2023-04-24T12:29:58;5.05;;;4.50;;
40515;SDS011;26216;53.724;9.898;2023-04-24T12:32:25;5.25;;;4.75;;
40515;SDS011;26216;53.724;9.898;2023-04-24T12:34:54;4.95;;;4.45;;
40515;SDS011;26216;53.724;9.898;2023-04-24T12:37:24;6.68;;;4.85;;
40515;SDS011;26216;53.724;9.898;2023-04-24T12:40:01;5.22;;;4.45;;
40515;SDS011;26216;53.724;9.898;2023-04-24T12:42:28;4.53;;;4.13;;
40515;SDS011;26216;53.724;9.898;2023-04-24T12:44:56;5.47;;;4.97;;
40515;SDS011;26216;53.724;9.898;2023-04-24T12:47:24;4.32;;;3.70;;
40515;SDS011;26216;53.724;9.898;2023-04-24T12:49:50;2.90;;;2.58;;
40515;SDS011;26216;53.724;9.898;2023-04-24T12:52:20;4.10;;;3.60;;
40515;SDS011;26216;53.724;9.898;2023-04-24T12:54:47;4.38;;;3.53;;
40515;SDS011;26216;53.724;9.898;2023-04-24T12:57:12;4.10;;;3.70;;
40515;SDS011;26216;53.724;9.898;2023-04-24T12:59:39;4.93;;;4.35;;
40515;SDS011;26216;53.724;9.898;2023-04-24T13:02:05;5.40;;;4.90;;
40515;SDS011;26216;53.724;9.898;2023-04-24T13:04:32;4.55;;;4.13;;
40515;SDS011;26216;53.724;9.898;2023-04-24T13:06:58;5.20;;;4.53;;
40515;SDS011;26216;53.724;9.898;2023-04-24T13:09:24;4.78;;;4.25;;
40515;SDS011;26216;53.724;9.898;2023-04-24T13:11:50;4.50;;;4.07;;
40515;SDS011;26216;53.724;9.898;2023-04-24T13:14:16;4.30;;;3.85;;
40515;SDS011;26216;53.724;9.898;2023-04-24T13:16:42;5.57;;;3.95;;
40515;SDS011;26216;53.724;9.898;2023-04-24T13:19:08;5.53;;;4.28;;
40515;SDS011;26216;53.724;9.898;2023-04-24T13:21:34;3.42;;;3.13;;
40515;SDS011;26216;53.724;9.898;2023-04-24T13:24:00;3.90;;;3.25;;
40515;SDS011;26216;53.724;9.898;2023-04-24T13:26:26;4.25;;;3.85;;
40515;SDS011;26216;53.724;9.898;2023-04-24T13:28:52;3.88;;;3.08;;
40515;SDS011;26216;53.724;9.898;2023-04-24T13:31:18;4.00;;;3.60;;
40515;SDS011;26216;53.724;9.898;2023-04-24T13:33:44;3.45;;;3.13;;
40515;SDS011;26216;53.724;9.898;2023-04-24T13:36:10;3.92;;;3.10;;
40515;SDS011;26216;53.724;9.898;2023-04-24T13:38:36;3.40;;;3.10;;
40515;SDS011;26216;53.724;9.898;2023-04-24T13:41:02;3.60;;;3.25;;
40515;SDS011;26216;53.724;9.898;2023-04-24T13:43:28;4.60;;;4.18;;
40515;SDS011;26216;53.724;9.898;2023-04-24T13:45:54;5.28;;;3.40;;
40515;SDS011;26216;53.724;9.898;2023-04-24T13:48:20;4.07;;;3.00;;
40515;SDS011;26216;53.724;9.898;2023-04-24T13:50:46;3.60;;;2.88;;
40515;SDS011;26216;53.724;9.898;2023-04-24T13:53:14;2.55;;;2.35;;
40515;SDS011;26216;53.724;9.898;2023-04-24T13:55:40;3.53;;;3.17;;
40515;SDS011;26216;53.724;9.898;2023-04-24T13:58:06;3.40;;;2.85;;
40515;SDS011;26216;53.724;9.898;2023-04-24T14:00:33;3.50;;;3.20;;
40515;SDS011;26216;53.724;9.898;2023-04-24T14:02:59;3.08;;;2.75;;
40515;SDS011;26216;53.724;9.898;2023-04-24T14:05:25;3.50;;;3.20;;
40515;SDS011;26216;53.724;9.898;2023-04-24T14:07:52;3.55;;;3.25;;
40515;SDS011;26216;53.724;9.898;2023-04-24T14:10:18;4.22;;;3.38;;
40515;SDS011;26216;53.724;9.898;2023-04-24T14:12:44;3.90;;;3.50;;
40515;SDS011;26216;53.724;9.898;2023-04-24T14:15:10;3.85;;;3.45;;
40515;SDS011;26216;53.724;9.898;2023-04-24T14:17:38;3.45;;;3.13;;
40515;SDS011;26216;53.724;9.898;2023-04-24T14:20:05;3.90;;;3.30;;
40515;SDS011;26216;53.724;9.898;2023-04-24T14:22:32;3.65;;;3.20;;
40515;SDS011;26216;53.724;9.898;2023-04-24T14:24:58;3.30;;;2.83;;
40515;SDS011;26216;53.724;9.898;2023-04-24T14:27:24;3.80;;;3.50;;
40515;SDS011;26216;53.724;9.898;2023-04-24T14:29:51;3.92;;;3.47;;
40515;SDS011;26216;53.724;9.898;2023-04-24T14:32:18;3.88;;;3.30;;
40515;SDS011;26216;53.724;9.898;2023-04-24T14:34:44;4.00;;;3.60;;
40515;SDS011;26216;53.724;9.898;2023-04-24T14:37:10;3.40;;;3.10;;
40515;SDS011;26216;53.724;9.898;2023-04-24T14:39:36;3.65;;;2.97;;
40515;SDS011;26216;53.724;9.898;2023-04-24T14:42:03;4.35;;;3.80;;
40515;SDS011;26216;53.724;9.898;2023-04-24T14:44:29;3.20;;;2.90;;
40515;SDS011;26216;53.724;9.898;2023-04-24T14:46:55;3.30;;;2.85;;
40515;SDS011;26216;53.724;9.898;2023-04-24T14:49:21;3.60;;;2.65;;
40515;SDS011;26216;53.724;9.898;2023-04-24T14:51:48;2.55;;;2.10;;
40515;SDS011;26216;53.724;9.898;2023-04-24T14:54:14;2.35;;;2.15;;
40515;SDS011;26216;53.724;9.898;2023-04-24T14:56:41;3.25;;;2.50;;
40515;SDS011;26216;53.724;9.898;2023-04-24T14:59:09;3.75;;;3.00;;
40515;SDS011;26216;53.724;9.898;2023-04-24T15:01:35;2.30;;;2.00;;